sensor_id;sensor_type;location;lat;lon;timestamp;P1;durP1;ratioP1;P2;durP2;ratioP2
72645;SDS011;60687;53.876;10.674;2024-03-08T00:00:28;15.00;;;7.37;;
72645;SDS011;60687;53.876;10.674;2024-03-08T00:10:33;16.20;;;7.67;;
72645;SDS011;60687;53.876;10.674;2024-03-08T00:20:37;15.88;;;7.72;;
72645;SDS011;60687;53.876;10.674;2024-03-08T00:30:39;16.23;;;7.43;;
72645;SDS011;60687;53.876;10.674;2024-03-08T00:40:46;14.13;;;7.17;;
72645;SDS011;60687;53.876;10.674;2024-03-08T00:50:48;16.70;;;7.82;;
72645;SDS011;60687;53.876;10.674;2024-03-08T01:00:52;15.43;;;7.63;;
72645;SDS011;60687;53.876;10.674;2024-03-08T01:10:55;16.97;;;8.33;;
72645;SDS011;60687;53.876;10.674;2024-03-08T01:21:00;16.77;;;8.30;;
72645;SDS011;60687;53.876;10.674;2024-03-08T01:31:02;16.33;;;8.05;;
72645;SDS011;60687;53.876;10.674;2024-03-08T01:41:08;17.53;;;9.33;;
72645;SDS011;60687;53.876;10.674;2024-03-08T01:51:11;18.53;;;9.27;;
72645;SDS011;60687;53.876;10.674;2024-03-08T02:01:24;18.35;;;9.10;;
72645;SDS011;60687;53.876;10.674;2024-03-08T02:11:27;17.50;;;8.90;;
72645;SDS011;60687;53.876;10.674;2024-03-08T02:21:31;15.33;;;8.17;;
72645;SDS011;60687;53.876;10.674;2024-03-08T02:31:34;18.10;;;9.18;;
72645;SDS011;60687;53.876;10.674;2024-03-08T02:41:38;18.17;;;8.63;;
72645;SDS011;60687;53.876;10.674;2024-03-08T02:51:40;18.17;;;8.57;;
72645;SDS011;60687;53.876;10.674;2024-03-08T03:01:44;17.70;;;8.63;;
72645;SDS011;60687;53.876;10.674;2024-03-08T03:11:46;16.73;;;8.77;;
72645;SDS011;60687;53.876;10.674;2024-03-08T03:21:50;18.30;;;10.17;;
72645;SDS011;60687;53.876;10.674;2024-03-08T03:31:53;19.47;;;9.30;;
72645;SDS011;60687;53.876;10.674;2024-03-08T03:41:57;21.05;;;9.50;;
72645;SDS011;60687;53.876;10.674;2024-03-08T03:51:59;15.97;;;8.07;;
72645;SDS011;60687;53.876;10.674;2024-03-08T04:02:03;15.77;;;7.67;;
72645;SDS011;60687;53.876;10.674;2024-03-08T04:12:06;19.95;;;10.93;;
72645;SDS011;60687;53.876;10.674;2024-03-08T04:22:11;22.50;;;10.90;;
72645;SDS011;60687;53.876;10.674;2024-03-08T04:32:14;28.63;;;12.20;;
72645;SDS011;60687;53.876;10.674;2024-03-08T04:42:19;25.05;;;12.27;;
72645;SDS011;60687;53.876;10.674;2024-03-08T04:52:21;22.67;;;11.05;;
72645;SDS011;60687;53.876;10.674;2024-03-08T05:02:25;21.83;;;10.63;;
72645;SDS011;60687;53.876;10.674;2024-03-08T05:12:28;20.47;;;10.87;;
72645;SDS011;60687;53.876;10.674;2024-03-08T05:22:31;22.83;;;11.02;;
72645;SDS011;60687;53.876;10.674;2024-03-08T05:32:34;21.57;;;10.43;;
72645;SDS011;60687;53.876;10.674;2024-03-08T05:42:38;20.30;;;10.30;;
72645;SDS011;60687;53.876;10.674;2024-03-08T05:52:40;20.00;;;10.07;;
72645;SDS011;60687;53.876;10.674;2024-03-08T06:02:45;18.70;;;9.03;;
72645;SDS011;60687;53.876;10.674;2024-03-08T06:12:47;19.43;;;10.33;;
72645;SDS011;60687;53.876;10.674;2024-03-08T06:22:51;21.65;;;9.73;;
72645;SDS011;60687;53.876;10.674;2024-03-08T06:32:55;26.02;;;11.57;;
72645;SDS011;60687;53.876;10.674;2024-03-08T06:42:59;27.47;;;10.97;;
72645;SDS011;60687;53.876;10.674;2024-03-08T06:53:02;24.07;;;11.07;;
72645;SDS011;60687;53.876;10.674;2024-03-08T07:03:08;28.15;;;11.43;;
72645;SDS011;60687;53.876;10.674;2024-03-08T07:13:13;24.33;;;11.33;;
72645;SDS011;60687;53.876;10.674;2024-03-08T07:23:18;22.77;;;10.20;;
72645;SDS011;60687;53.876;10.674;2024-03-08T07:33:34;24.10;;;10.65;;
72645;SDS011;60687;53.876;10.674;2024-03-08T07:43:41;22.80;;;10.07;;
72645;SDS011;60687;53.876;10.674;2024-03-08T07:53:46;22.10;;;11.20;;
72645;SDS011;60687;53.876;10.674;2024-03-08T08:03:52;22.95;;;10.50;;
72645;SDS011;60687;53.876;10.674;2024-03-08T08:13:54;19.23;;;9.70;;
72645;SDS011;60687;53.876;10.674;2024-03-08T08:23:58;20.27;;;9.20;;
72645;SDS011;60687;53.876;10.674;2024-03-08T08:34:00;20.87;;;10.30;;
72645;SDS011;60687;53.876;10.674;2024-03-08T08:44:05;29.60;;;12.55;;
72645;SDS011;60687;53.876;10.674;2024-03-08T08:54:10;27.47;;;13.03;;
72645;SDS011;60687;53.876;10.674;2024-03-08T09:04:14;27.33;;;12.63;;
72645;SDS011;60687;53.876;10.674;2024-03-08T09:14:18;22.10;;;10.98;;
72645;SDS011;60687;53.876;10.674;2024-03-08T09:24:27;24.50;;;11.80;;
72645;SDS011;60687;53.876;10.674;2024-03-08T09:34:30;25.70;;;11.90;;
72645;SDS011;60687;53.876;10.674;2024-03-08T09:44:36;29.00;;;13.90;;
72645;SDS011;60687;53.876;10.674;2024-03-08T09:54:40;27.63;;;13.60;;
72645;SDS011;60687;53.876;10.674;2024-03-08T10:04:48;29.37;;;13.70;;
72645;SDS011;60687;53.876;10.674;2024-03-08T10:14:54;25.40;;;12.93;;
72645;SDS011;60687;53.876;10.674;2024-03-08T10:24:58;22.52;;;10.77;;
72645;SDS011;60687;53.876;10.674;2024-03-08T10:35:06;23.10;;;10.70;;
72645;SDS011;60687;53.876;10.674;2024-03-08T10:45:31;22.90;;;11.77;;
72645;SDS011;60687;53.876;10.674;2024-03-08T10:55:37;27.02;;;12.68;;
72645;SDS011;60687;53.876;10.674;2024-03-08T11:05:43;26.43;;;13.33;;
72645;SDS011;60687;53.876;10.674;2024-03-08T11:15:49;27.00;;;13.40;;
72645;SDS011;60687;53.876;10.674;2024-03-08T11:25:53;26.02;;;12.57;;
72645;SDS011;60687;53.876;10.674;2024-03-08T11:35:57;26.85;;;12.57;;
72645;SDS011;60687;53.876;10.674;2024-03-08T11:46:10;26.07;;;13.27;;
72645;SDS011;60687;53.876;10.674;2024-03-08T11:56:14;26.67;;;13.20;;
72645;SDS011;60687;53.876;10.674;2024-03-08T12:06:18;26.25;;;12.27;;
72645;SDS011;60687;53.876;10.674;2024-03-08T12:16:23;27.63;;;13.87;;
72645;SDS011;60687;53.876;10.674;2024-03-08T12:26:27;25.50;;;11.53;;
72645;SDS011;60687;53.876;10.674;2024-03-08T12:36:29;25.08;;;12.50;;
72645;SDS011;60687;53.876;10.674;2024-03-08T12:46:33;26.67;;;11.67;;
72645;SDS011;60687;53.876;10.674;2024-03-08T12:56:47;25.00;;;11.70;;
72645;SDS011;60687;53.876;10.674;2024-03-08T13:06:52;26.15;;;12.50;;
72645;SDS011;60687;53.876;10.674;2024-03-08T13:16:55;22.40;;;11.02;;
72645;SDS011;60687;53.876;10.674;2024-03-08T13:26:59;21.90;;;9.50;;
72645;SDS011;60687;53.876;10.674;2024-03-08T13:37:01;27.30;;;12.67;;
72645;SDS011;60687;53.876;10.674;2024-03-08T13:47:07;26.70;;;12.60;;
72645;SDS011;60687;53.876;10.674;2024-03-08T13:57:12;24.73;;;11.93;;
72645;SDS011;60687;53.876;10.674;2024-03-08T14:07:16;27.77;;;13.90;;
72645;SDS011;60687;53.876;10.674;2024-03-08T14:17:19;26.52;;;12.95;;
72645;SDS011;60687;53.876;10.674;2024-03-08T14:27:24;25.77;;;12.40;;
72645;SDS011;60687;53.876;10.674;2024-03-08T14:37:27;31.50;;;14.20;;
72645;SDS011;60687;53.876;10.674;2024-03-08T14:47:31;28.25;;;13.20;;
72645;SDS011;60687;53.876;10.674;2024-03-08T14:57:37;31.10;;;13.80;;
72645;SDS011;60687;53.876;10.674;2024-03-08T15:07:43;27.47;;;13.00;;
72645;SDS011;60687;53.876;10.674;2024-03-08T15:17:46;29.33;;;14.37;;
72645;SDS011;60687;53.876;10.674;2024-03-08T15:27:50;28.83;;;13.77;;
72645;SDS011;60687;53.876;10.674;2024-03-08T15:37:54;27.27;;;13.47;;
72645;SDS011;60687;53.876;10.674;2024-03-08T15:48:02;24.10;;;12.03;;
72645;SDS011;60687;53.876;10.674;2024-03-08T15:58:09;24.33;;;11.55;;
72645;SDS011;60687;53.876;10.674;2024-03-08T16:08:13;21.60;;;10.40;;
72645;SDS011;60687;53.876;10.674;2024-03-08T16:18:17;20.40;;;10.03;;
72645;SDS011;60687;53.876;10.674;2024-03-08T16:28:23;24.17;;;11.93;;
72645;SDS011;60687;53.876;10.674;2024-03-08T16:38:28;20.67;;;10.48;;
72645;SDS011;60687;53.876;10.674;2024-03-08T16:48:38;23.13;;;11.17;;
72645;SDS011;60687;53.876;10.674;2024-03-08T16:58:43;21.97;;;9.90;;
72645;SDS011;60687;53.876;10.674;2024-03-08T17:08:46;21.45;;;10.13;;
72645;SDS011;60687;53.876;10.674;2024-03-08T17:18:49;18.33;;;9.53;;
72645;SDS011;60687;53.876;10.674;2024-03-08T17:39:30;23.30;;;10.65;;
72645;SDS011;60687;53.876;10.674;2024-03-08T17:49:34;20.10;;;9.50;;
72645;SDS011;60687;53.876;10.674;2024-03-08T17:59:42;22.20;;;10.87;;
72645;SDS011;60687;53.876;10.674;2024-03-08T18:09:50;22.60;;;10.82;;
72645;SDS011;60687;53.876;10.674;2024-03-08T18:19:54;22.25;;;10.00;;
72645;SDS011;60687;53.876;10.674;2024-03-08T18:30:06;23.87;;;12.53;;
72645;SDS011;60687;53.876;10.674;2024-03-08T18:40:13;20.73;;;10.97;;
72645;SDS011;60687;53.876;10.674;2024-03-08T18:50:21;22.83;;;11.65;;
72645;SDS011;60687;53.876;10.674;2024-03-08T19:00:28;23.80;;;11.77;;
72645;SDS011;60687;53.876;10.674;2024-03-08T19:10:35;23.57;;;11.60;;
72645;SDS011;60687;53.876;10.674;2024-03-08T19:20:40;24.50;;;11.82;;
72645;SDS011;60687;53.876;10.674;2024-03-08T19:30:43;24.63;;;11.00;;
72645;SDS011;60687;53.876;10.674;2024-03-08T19:40:47;21.80;;;11.40;;
72645;SDS011;60687;53.876;10.674;2024-03-08T19:50:54;26.02;;;13.05;;
72645;SDS011;60687;53.876;10.674;2024-03-08T20:01:10;21.10;;;11.55;;
72645;SDS011;60687;53.876;10.674;2024-03-08T20:11:18;22.27;;;12.00;;
72645;SDS011;60687;53.876;10.674;2024-03-08T20:21:23;27.10;;;13.90;;
72645;SDS011;60687;53.876;10.674;2024-03-08T20:31:25;24.40;;;12.43;;
72645;SDS011;60687;53.876;10.674;2024-03-08T20:41:29;22.20;;;11.40;;
72645;SDS011;60687;53.876;10.674;2024-03-08T20:51:32;22.07;;;11.60;;
72645;SDS011;60687;53.876;10.674;2024-03-08T21:01:37;21.42;;;11.35;;
72645;SDS011;60687;53.876;10.674;2024-03-08T21:11:39;24.90;;;12.57;;
72645;SDS011;60687;53.876;10.674;2024-03-08T21:21:43;21.53;;;11.77;;
72645;SDS011;60687;53.876;10.674;2024-03-08T21:31:45;24.48;;;11.80;;
72645;SDS011;60687;53.876;10.674;2024-03-08T21:41:50;21.20;;;10.60;;
72645;SDS011;60687;53.876;10.674;2024-03-08T21:51:54;22.43;;;10.87;;
72645;SDS011;60687;53.876;10.674;2024-03-08T22:01:59;22.87;;;10.77;;
72645;SDS011;60687;53.876;10.674;2024-03-08T22:12:03;23.08;;;11.18;;
72645;SDS011;60687;53.876;10.674;2024-03-08T22:22:10;20.37;;;9.67;;
72645;SDS011;60687;53.876;10.674;2024-03-08T22:32:12;23.43;;;11.40;;
72645;SDS011;60687;53.876;10.674;2024-03-08T22:42:17;19.30;;;9.73;;
72645;SDS011;60687;53.876;10.674;2024-03-08T22:52:19;20.03;;;9.17;;
72645;SDS011;60687;53.876;10.674;2024-03-08T23:02:23;21.07;;;9.77;;
72645;SDS011;60687;53.876;10.674;2024-03-08T23:12:25;20.77;;;10.32;;
72645;SDS011;60687;53.876;10.674;2024-03-08T23:22:29;18.30;;;8.82;;
72645;SDS011;60687;53.876;10.674;2024-03-08T23:32:34;19.53;;;8.93;;
72645;SDS011;60687;53.876;10.674;2024-03-08T23:42:38;18.57;;;9.33;;
72645;SDS011;60687;53.876;10.674;2024-03-08T23:52:41;15.68;;;8.60;;
